createdAt,value
2019-05-25T00:25:07.692Z,99.80
2019-05-25T00:40:20.075Z,98.50
2019-05-25T00:50:29.350Z,97.40
2019-05-25T00:55:33.870Z,97.30
2019-05-25T01:00:38.156Z,97.50
2019-05-25T01:05:42.447Z,97.80
2019-05-25T01:15:50.846Z,97.60
2019-05-25T01:25:59.988Z,97.60
2019-05-25T02:16:40.266Z,99.80
2019-05-25T02:21:44.556Z,99.90
2019-05-25T02:26:49.040Z,99.90
2019-05-25T02:42:02.203Z,99.90
2019-05-25T02:47:06.483Z,99.90
2019-05-25T02:52:10.782Z,99.90
2019-05-25T02:57:15.067Z,99.90
2019-05-25T03:07:23.767Z,99.90
2019-05-25T03:12:29.804Z,99.90
2019-05-25T03:17:34.318Z,99.90
2019-05-25T03:22:38.602Z,99.90
2019-05-25T03:37:52.065Z,99.90
2019-05-25T03:53:04.751Z,99.90
2019-05-25T03:58:09.390Z,99.90
2019-05-25T04:03:13.675Z,99.90
2019-05-25T04:08:18.327Z,99.90
2019-05-25T04:13:22.858Z,99.90
2019-05-25T04:18:27.159Z,99.90
2019-05-25T04:28:35.926Z,99.90
2019-05-25T04:38:44.114Z,99.90
2019-05-25T04:48:52.762Z,99.90
2019-05-25T04:53:57.320Z,99.90
2019-05-25T04:59:01.616Z,99.90
2019-05-25T05:09:09.898Z,99.90
2019-05-25T05:14:14.827Z,99.90
2019-05-25T05:34:31.456Z,99.90
2019-05-25T05:39:36.047Z,99.90
2019-05-25T05:49:46.499Z,98.10
2019-05-25T05:54:52.222Z,97.90
2019-05-25T05:59:58.031Z,96.90
2019-05-25T06:15:12.634Z,96.10
2019-05-25T06:30:25.614Z,95.50
2019-05-25T06:35:29.923Z,94.50
2019-05-25T06:45:38.560Z,93.60
2019-05-25T07:21:08.639Z,93.00
2019-05-25T07:36:20.876Z,90.90
2019-05-25T07:46:29.281Z,91.10
2019-05-25T07:51:33.668Z,91.40
2019-05-25T08:11:50.075Z,91.50
2019-05-25T08:21:58.222Z,91.40
2019-05-25T08:37:10.943Z,88.20
2019-05-25T08:52:23.219Z,84.40
2019-05-25T09:07:35.863Z,86.20
2019-05-25T09:17:44.006Z,89.10
2019-05-25T09:32:56.043Z,87.60
2019-05-25T09:38:00.350Z,89.10
2019-05-25T09:48:08.514Z,87.30
2019-05-25T09:53:13.876Z,87.80
2019-05-25T10:03:24.203Z,84.10
2019-05-25T10:18:36.264Z,89.50
2019-05-25T10:38:52.846Z,87.10
2019-05-25T10:59:09.246Z,90.10
2019-05-25T11:09:18.220Z,88.40
2019-05-25T11:14:22.758Z,90.60
2019-05-25T11:29:35.027Z,89.30
2019-05-25T11:39:43.490Z,90.50
2019-05-25T12:05:07.663Z,88.10
2019-05-25T12:20:21.113Z,90.00
2019-05-25T12:30:40.342Z,85.90
2019-05-25T12:35:36.259Z,88.70
2019-05-25T13:16:12.355Z,87.00
2019-05-25T13:26:20.686Z,86.00
2019-05-25T13:36:28.850Z,84.90
2019-05-25T13:56:45.074Z,82.60
2019-05-25T14:06:53.779Z,83.20
2019-05-25T14:11:58.072Z,83.60
2019-05-25T14:42:22.233Z,84.80
2019-05-25T15:22:54.515Z,84.10
2019-05-25T15:33:03.343Z,81.50
2019-05-25T16:03:28.495Z,81.50
2019-05-25T16:08:32.842Z,79.60
2019-05-25T16:59:12.907Z,84.90
2019-05-25T17:19:29.984Z,85.60
2019-05-25T17:24:34.279Z,87.30
2019-05-25T17:39:46.315Z,90.60
2019-05-25T17:49:54.647Z,91.60
2019-05-25T17:54:59.197Z,91.50
2019-05-25T18:05:10.547Z,92.00
2019-05-25T18:10:15.296Z,92.80
2019-05-25T18:15:19.642Z,93.40
2019-05-25T18:30:33.833Z,94.50
2019-05-25T18:40:43.155Z,94.90
2019-05-25T19:01:00.621Z,94.80
2019-05-25T19:11:09.159Z,94.90
2019-05-25T19:36:29.302Z,96.60
2019-05-25T20:01:49.690Z,96.70
2019-05-25T20:06:53.978Z,97.20
2019-05-25T20:11:58.262Z,97.30
2019-05-25T20:22:09.146Z,97.80
2019-05-25T20:27:12.687Z,98.00
2019-05-25T20:37:21.479Z,98.60
2019-05-25T21:02:41.612Z,99.90
2019-05-25T21:12:49.886Z,99.90
2019-05-25T21:17:54.177Z,99.90
2019-05-25T21:28:02.323Z,99.90
2019-05-25T21:33:06.947Z,99.90
2019-05-25T22:03:33.597Z,99.90
2019-05-25T22:08:38.950Z,99.90
2019-05-25T22:18:47.114Z,99.90
2019-05-25T22:33:59.560Z,99.90
2019-05-25T22:54:18.502Z,99.90
2019-05-25T22:59:23.056Z,99.90
2019-05-25T23:29:47.211Z,99.90
2019-05-25T23:34:51.516Z,99.90
